Time;durP1;ratioP1;P1;durP2;ratioP2;P2;SDS_P1;SDS_P2;PMS_P1;PMS_P2;Temp;Humidity;BMP_temperature;BMP_pressure;BME280_temperature;BME280_humidity;BME280_pressure;Samples;Min_cycle;Max_cycle;Signal;HPM_P1;HPM_P2
2022/01/06 00:00:12;;;;;;;7.63;1.50;;;3.00;99.90;;;;;;5081056;28;20043;-69
2022/01/06 00:02:37;;;;;;;8.23;2.35;;;3.00;99.90;;;;;;5080675;28;20496;-69
2022/01/06 00:05:04;;;;;;;8.13;2.85;;;2.90;99.90;;;;;;5080283;28;20067;-69
2022/01/06 00:07:31;;;;;;;8.88;3.50;;;2.90;99.90;;;;;;5098901;28;20133;-68
2022/01/06 00:09:57;;;;;;;12.27;2.10;;;2.90;99.90;;;;;;5098338;28;20055;-68
2022/01/06 00:12:29;;;;;;;12.80;2.17;;;2.90;99.90;;;;;;5082542;28;20060;-68
2022/01/06 00:23:19;;;;;;;5.40;1.60;;;2.60;99.90;;;;;;5098938;28;20051;-68
2022/01/06 00:25:45;;;;;;;8.93;2.03;;;2.60;99.90;;;;;;5079605;28;20045;-68
2022/01/06 00:28:12;;;;;;;14.35;2.63;;;2.70;99.90;;;;;;5082344;28;20109;-68
2022/01/06 00:30:38;;;;;;;7.30;1.80;;;2.50;99.90;;;;;;5080103;28;20044;-68
2022/01/06 00:33:03;;;;;;;9.77;2.05;;;2.40;99.90;;;;;;5101677;28;20051;-68
2022/01/06 00:35:29;;;;;;;9.32;1.92;;;2.40;99.90;;;;;;5079493;28;20586;-68
2022/01/06 00:37:55;;;;;;;6.63;1.45;;;2.50;99.90;;;;;;5080623;28;20046;-68
2022/01/06 00:40:20;;;;;;;11.45;2.10;;;2.30;99.90;;;;;;5080207;28;20040;-68
2022/01/06 00:42:46;;;;;;;6.53;2.03;;;2.50;99.90;;;;;;5080086;28;20052;-68
2022/01/06 00:45:12;;;;;;;11.45;1.85;;;2.30;99.90;;;;;;5080102;28;20044;-68
2022/01/06 00:47:37;;;;;;;5.32;2.00;;;2.90;99.90;;;;;;5079181;28;20076;-68
2022/01/06 00:50:04;;;;;;;8.75;2.45;;;2.40;99.90;;;;;;5079926;28;20044;-68
2022/01/06 00:52:30;;;;;;;9.70;1.80;;;2.40;99.90;;;;;;5079285;28;20051;-68
2022/01/06 00:54:55;;;;;;;10.82;2.53;;;2.40;99.90;;;;;;5080062;28;20041;-69
2022/01/06 00:57:21;;;;;;;8.32;1.45;;;2.40;99.90;;;;;;5078373;28;20075;-68
2022/01/06 00:59:47;;;;;;;6.65;1.60;;;2.40;99.90;;;;;;5078302;28;20048;-68
2022/01/06 01:02:12;;;;;;;7.97;1.48;;;2.40;99.90;;;;;;5083846;28;20036;-68
2022/01/06 01:04:38;;;;;;;8.63;2.20;;;2.40;99.90;;;;;;5088977;28;20052;-68
2022/01/06 01:07:05;;;;;;;5.32;1.50;;;2.50;99.90;;;;;;5079671;28;20057;-68
2022/01/06 01:09:31;;;;;;;6.85;2.63;;;3.50;99.90;;;;;;5091504;28;20040;-68
2022/01/06 01:12:02;;;;;;;8.40;1.55;;;2.70;99.90;;;;;;5081539;28;20048;-68
2022/01/06 01:14:31;;;;;;;7.70;2.15;;;2.80;99.90;;;;;;5079399;28;20048;-69
2022/01/06 01:16:59;;;;;;;6.88;2.63;;;3.30;99.90;;;;;;5079242;28;20051;-69
2022/01/06 01:19:27;;;;;;;9.32;2.55;;;2.90;99.90;;;;;;5093846;28;20048;-69
2022/01/06 01:21:54;;;;;;;13.15;2.33;;;2.80;99.90;;;;;;5091859;28;20044;-70
2022/01/06 01:24:21;;;;;;;6.47;1.83;;;2.70;99.90;;;;;;5078295;28;20052;-69
2022/01/06 01:26:47;;;;;;;9.82;2.15;;;2.60;99.90;;;;;;5082930;28;20503;-69
2022/01/06 01:29:16;;;;;;;9.23;1.90;;;2.60;99.90;;;;;;5089842;28;20051;-69
2022/01/06 01:31:46;;;;;;;14.27;2.50;;;2.50;99.90;;;;;;5079560;28;20051;-69
2022/01/06 01:34:13;;;;;;;11.98;2.20;;;2.50;99.90;;;;;;5083359;28;20044;-69
2022/01/06 01:36:39;;;;;;;9.88;2.83;;;2.40;99.90;;;;;;5083232;28;20052;-70
2022/01/06 01:39:05;;;;;;;9.40;1.80;;;2.30;99.90;;;;;;5078423;28;20040;-70
2022/01/06 01:41:32;;;;;;;9.20;2.45;;;2.30;99.90;;;;;;5077777;28;20104;-69
2022/01/06 01:43:58;;;;;;;9.30;2.20;;;2.20;99.90;;;;;;5078309;28;20076;-69
2022/01/06 01:46:28;;;;;;;8.23;1.67;;;2.10;99.90;;;;;;5079185;28;20107;-70
2022/01/06 01:51:40;;;;;;;8.68;1.92;;;2.00;99.90;;;;;;5097132;28;20071;-69
2022/01/06 01:54:07;;;;;;;8.32;1.77;;;2.00;99.90;;;;;;5077688;28;20124;-70
2022/01/06 01:56:32;;;;;;;9.35;2.20;;;1.90;99.90;;;;;;5077218;28;20055;-70
2022/01/06 01:58:58;;;;;;;9.63;1.90;;;1.90;99.90;;;;;;5079413;28;20048;-69
2022/01/06 02:01:24;;;;;;;10.32;2.30;;;2.10;99.90;;;;;;5078345;28;20085;-70
2022/01/06 02:03:49;;;;;;;13.48;2.88;;;1.80;99.90;;;;;;5094295;28;20049;-69
2022/01/06 02:06:18;;;;;;;8.23;2.00;;;1.80;99.90;;;;;;5083766;28;20044;-70
2022/01/06 02:08:43;;;;;;;7.35;1.45;;;1.80;99.90;;;;;;5098998;28;20052;-69
2022/01/06 02:11:09;;;;;;;10.10;2.17;;;1.80;99.90;;;;;;5081729;28;20045;-69
2022/01/06 02:13:45;;;;;;;12.80;2.35;;;1.80;99.90;;;;;;5081716;28;20056;-69
2022/01/06 02:16:11;;;;;;;;;;;1.80;99.90;;;;;;5079212;28;20074;-69
2022/01/06 02:18:37;;;;;;;6.50;2.20;;;2.00;99.90;;;;;;5096025;28;19920;-69
2022/01/06 02:21:02;;;;;;;10.00;2.33;;;1.80;99.90;;;;;;5079179;28;20075;-69
2022/01/06 02:23:28;;;;;;;12.35;3.20;;;1.80;99.90;;;;;;5078684;28;20108;-69
2022/01/06 02:25:54;;;;;;;11.60;3.97;;;1.80;99.90;;;;;;5078574;28;20067;-70
2022/01/06 02:28:22;;;;;;;7.70;1.63;;;1.80;99.90;;;;;;5078645;28;20033;-70
2022/01/06 02:30:51;;;;;;;7.07;2.28;;;1.70;99.90;;;;;;5078033;28;20044;-69
2022/01/06 02:33:17;;;;;;;10.82;2.45;;;1.80;99.90;;;;;;5083554;28;20037;-69
2022/01/06 02:35:43;;;;;;;8.07;2.83;;;1.70;99.90;;;;;;5077855;28;20048;-69
2022/01/06 02:38:11;;;;;;;7.38;2.10;;;1.60;99.90;;;;;;5077214;28;20063;-69
2022/01/06 02:40:37;;;;;;;7.43;1.40;;;1.60;99.90;;;;;;5078564;28;20045;-69
2022/01/06 02:43:05;;;;;;;7.30;1.98;;;2.00;99.90;;;;;;5078339;28;20079;-69
2022/01/06 02:45:31;;;;;;;6.82;1.85;;;1.50;99.90;;;;;;5076832;28;20043;-69
2022/01/06 02:47:57;;;;;;;17.25;3.40;;;1.50;99.90;;;;;;5080176;28;20045;-70
2022/01/06 02:50:25;;;;;;;6.07;1.85;;;1.40;99.90;;;;;;5082594;28;20036;-69
2022/01/06 02:52:51;;;;;;;12.23;2.95;;;1.40;99.90;;;;;;5081918;28;20063;-69
2022/01/06 02:55:17;;;;;;;13.10;2.25;;;1.30;99.90;;;;;;5086277;28;20587;-69
2022/01/06 02:57:44;;;;;;;10.68;1.75;;;1.30;99.90;;;;;;5085621;28;20052;-69
2022/01/06 03:00:15;;;;;;;13.77;2.58;;;1.30;99.90;;;;;;5082373;28;20048;-69
2022/01/06 03:02:43;;;;;;;16.02;2.28;;;1.40;99.90;;;;;;5080884;28;20040;-69
2022/01/06 03:05:10;;;;;;;12.82;2.88;;;2.60;99.90;;;;;;5081487;28;20051;-69
2022/01/06 03:07:36;;;;;;;13.10;2.22;;;1.40;99.90;;;;;;5090692;28;20052;-69
2022/01/06 03:10:04;;;;;;;10.90;2.80;;;1.90;99.90;;;;;;5102032;28;20188;-69
2022/01/06 03:12:39;;;;;;;6.63;2.17;;;1.50;99.90;;;;;;5100871;28;20536;-70
2022/01/06 03:15:12;;;;;;;12.35;3.08;;;1.40;99.90;;;;;;5088183;28;20439;-69
2022/01/06 03:17:40;;;;;;;10.32;2.30;;;1.40;99.90;;;;;;5084366;28;20036;-69
2022/01/06 03:20:08;;;;;;;11.07;3.45;;;1.50;99.90;;;;;;5083810;28;20041;-69
2022/01/06 03:22:34;;;;;;;8.30;1.90;;;1.50;99.90;;;;;;5081068;28;20040;-69
2022/01/06 03:25:00;;;;;;;23.55;3.28;;;1.50;99.90;;;;;;5082091;28;20041;-69
2022/01/06 03:27:26;;;;;;;13.65;1.92;;;1.50;99.90;;;;;;5080108;28;20516;-69
2022/01/06 03:29:52;;;;;;;10.40;2.10;;;1.50;99.90;;;;;;5082005;28;20047;-69
2022/01/06 03:32:19;;;;;;;9.38;2.45;;;1.50;99.90;;;;;;5090801;28;20048;-69
2022/01/06 03:34:45;;;;;;;17.38;4.57;;;1.50;99.90;;;;;;5088520;28;20064;-69
2022/01/06 03:37:12;;;;;;;8.52;1.80;;;1.50;99.90;;;;;;5081662;28;20119;-69
2022/01/06 03:39:38;;;;;;;7.07;1.55;;;1.50;99.90;;;;;;5079401;28;20044;-69
2022/01/06 03:42:04;;;;;;;11.90;2.55;;;1.40;99.90;;;;;;5081885;28;20049;-69
2022/01/06 03:44:30;;;;;;;7.68;1.52;;;1.40;99.90;;;;;;5094677;28;20044;-69
2022/01/06 03:46:56;;;;;;;11.48;2.28;;;1.40;99.90;;;;;;5081283;28;20066;-69
2022/01/06 03:49:22;;;;;;;7.82;1.83;;;1.40;99.90;;;;;;5086737;28;20130;-69
2022/01/06 03:51:48;;;;;;;7.75;1.88;;;1.40;99.90;;;;;;5081161;28;20048;-69
2022/01/06 03:54:14;;;;;;;9.77;2.22;;;1.40;99.90;;;;;;5088508;28;20468;-69
2022/01/06 03:56:40;;;;;;;7.95;1.95;;;1.40;99.90;;;;;;5093353;28;20035;-69
2022/01/06 03:59:06;;;;;;;7.05;1.83;;;1.40;99.90;;;;;;5092965;28;20048;-69
2022/01/06 04:01:33;;;;;;;10.20;2.70;;;1.40;99.90;;;;;;5080616;28;20105;-69
2022/01/06 04:03:59;;;;;;;12.38;2.03;;;1.30;99.90;;;;;;5081151;28;20041;-69
2022/01/06 04:06:25;;;;;;;11.23;1.77;;;1.20;99.90;;;;;;5080731;28;20581;-69
2022/01/06 04:08:51;;;;;;;10.18;2.33;;;1.20;99.90;;;;;;5085408;28;20049;-69
2022/01/06 04:11:17;;;;;;;11.93;2.58;;;1.20;99.90;;;;;;5080668;28;20133;-69
2022/01/06 04:13:44;;;;;;;9.30;2.17;;;1.20;99.90;;;;;;5082068;28;20045;-69
2022/01/06 04:16:13;;;;;;;9.27;2.13;;;1.20;99.90;;;;;;5088957;28;20093;-69
2022/01/06 04:18:39;;;;;;;10.45;1.80;;;1.10;99.90;;;;;;5086166;28;20056;-69
2022/01/06 04:21:06;;;;;;;6.25;2.13;;;1.20;99.90;;;;;;5081099;28;20047;-69
2022/01/06 04:23:33;;;;;;;7.90;1.73;;;1.10;99.90;;;;;;5080740;28;20044;-69
2022/01/06 04:25:59;;;;;;;9.82;1.88;;;1.10;99.90;;;;;;5080558;28;20127;-69
2022/01/06 04:28:25;;;;;;;11.43;1.80;;;1.20;99.90;;;;;;5082510;28;20133;-69
2022/01/06 04:30:51;;;;;;;8.10;1.60;;;1.20;99.90;;;;;;5084798;28;20040;-70
2022/01/06 04:33:18;;;;;;;6.75;2.75;;;1.30;99.90;;;;;;5086991;28;20047;-69
2022/01/06 04:35:43;;;;;;;13.63;2.65;;;1.10;99.90;;;;;;5083819;28;20068;-69
2022/01/06 04:38:09;;;;;;;9.38;2.00;;;1.00;99.90;;;;;;5083404;28;20059;-69
2022/01/06 04:40:35;;;;;;;10.05;2.80;;;0.90;99.90;;;;;;5080404;28;20041;-69
2022/01/06 04:43:01;;;;;;;9.75;1.83;;;0.80;99.90;;;;;;5080400;28;20048;-69
2022/01/06 04:45:27;;;;;;;9.15;1.92;;;0.70;99.90;;;;;;5086977;28;20056;-69
2022/01/06 04:47:53;;;;;;;5.25;1.65;;;0.60;99.90;;;;;;5092860;28;20047;-70
2022/01/06 04:50:18;;;;;;;8.68;1.77;;;0.60;99.90;;;;;;5092611;28;20041;-69
2022/01/06 04:52:44;;;;;;;10.60;2.65;;;0.60;99.90;;;;;;5088064;28;20171;-69
2022/01/06 04:55:10;;;;;;;6.97;1.95;;;0.50;99.90;;;;;;5095087;28;20045;-69
2022/01/06 04:57:35;;;;;;;10.50;1.80;;;0.50;99.90;;;;;;5079846;28;20571;-69
2022/01/06 05:00:03;;;;;;;7.22;2.05;;;0.50;99.90;;;;;;5078784;28;20108;-69
2022/01/06 05:02:28;;;;;;;6.43;1.23;;;0.40;99.90;;;;;;5102722;28;20068;-69
2022/01/06 05:04:54;;;;;;;8.32;1.52;;;0.40;99.90;;;;;;5079247;28;20048;-69
2022/01/06 05:07:20;;;;;;;6.35;1.60;;;0.30;99.90;;;;;;5081224;28;20052;-69
2022/01/06 05:09:46;;;;;;;6.68;2.08;;;0.30;99.90;;;;;;5078816;28;20062;-69
2022/01/06 05:12:11;;;;;;;6.70;1.45;;;0.20;99.90;;;;;;5082747;28;20466;-69
2022/01/06 05:14:39;;;;;;;7.35;1.42;;;0.10;99.90;;;;;;5091360;28;20058;-70
2022/01/06 05:17:05;;;;;;;8.80;1.95;;;0.00;99.90;;;;;;5096487;28;20052;-70
2022/01/06 05:19:30;;;;;;;10.00;1.88;;;-0.10;99.90;;;;;;5081345;28;20051;-69
2022/01/06 05:21:56;;;;;;;3.38;1.42;;;-0.20;99.90;;;;;;5083883;28;20052;-70
2022/01/06 05:24:24;;;;;;;4.38;1.55;;;-0.20;99.90;;;;;;5079949;28;20093;-70
2022/01/06 05:26:49;;;;;;;7.93;2.22;;;-0.20;99.90;;;;;;5092252;28;20774;-70
2022/01/06 05:29:15;;;;;;;13.80;2.30;;;-0.20;99.90;;;;;;5079582;28;20044;-70
2022/01/06 05:31:41;;;;;;;7.88;1.92;;;-0.10;99.90;;;;;;5088064;28;20134;-70
2022/01/06 05:34:07;;;;;;;13.35;2.28;;;-0.20;99.90;;;;;;5084648;28;20094;-70
2022/01/06 05:36:34;;;;;;;9.38;1.90;;;-0.20;99.90;;;;;;5090336;28;20093;-70
2022/01/06 05:39:00;;;;;;;15.73;2.40;;;-0.10;99.90;;;;;;5085051;28;20070;-70
2022/01/06 05:41:26;;;;;;;10.02;2.45;;;0.00;99.90;;;;;;5093938;28;20079;-70
2022/01/06 05:43:52;;;;;;;12.02;3.38;;;0.00;99.90;;;;;;5079829;28;20404;-70
2022/01/06 05:46:18;;;;;;;8.38;2.28;;;0.10;99.90;;;;;;5078907;28;20040;-70
2022/01/06 05:48:46;;;;;;;15.77;4.68;;;0.00;99.90;;;;;;5062528;28;20033;-69
2022/01/06 05:51:12;;;;;;;12.43;2.42;;;0.10;99.90;;;;;;5079035;28;20045;-69
2022/01/06 05:53:37;;;;;;;8.25;2.65;;;0.10;99.90;;;;;;5079234;28;20051;-70
2022/01/06 05:56:03;;;;;;;7.60;1.73;;;0.30;99.90;;;;;;5078593;28;20468;-70
2022/01/06 05:58:29;;;;;;;7.53;2.53;;;0.20;99.90;;;;;;5079258;28;20557;-70
2022/01/06 06:00:56;;;;;;;11.50;1.90;;;0.20;99.90;;;;;;5077271;28;20040;-70
2022/01/06 06:03:22;;;;;;;11.93;2.17;;;0.30;99.90;;;;;;5078887;28;20102;-69
2022/01/06 06:05:48;;;;;;;9.40;1.85;;;0.20;99.90;;;;;;5082948;28;20063;-69
2022/01/06 06:08:14;;;;;;;10.80;2.28;;;0.30;99.90;;;;;;5078844;28;20049;-70
2022/01/06 06:10:40;;;;;;;10.85;2.33;;;0.30;99.90;;;;;;5077859;28;20127;-70
2022/01/06 06:13:06;;;;;;;9.13;2.28;;;0.20;99.90;;;;;;5078530;28;20522;-71
2022/01/06 06:15:34;;;;;;;8.85;2.10;;;0.20;99.90;;;;;;5077772;28;20060;-70
2022/01/06 06:18:04;;;;;;;10.13;2.10;;;0.30;99.90;;;;;;5077481;28;20117;-70
2022/01/06 06:20:29;;;;;;;13.38;1.90;;;0.30;99.90;;;;;;5078516;28;20074;-70
2022/01/06 06:22:55;;;;;;;7.53;1.85;;;0.30;99.90;;;;;;5078164;28;20040;-70
2022/01/06 06:25:21;;;;;;;13.15;2.80;;;0.30;99.90;;;;;;5092386;28;20054;-70
2022/01/06 06:27:47;;;;;;;11.20;2.05;;;0.20;99.90;;;;;;5091886;28;20084;-70
2022/01/06 06:30:13;;;;;;;12.10;2.75;;;0.20;99.90;;;;;;5078592;28;20037;-70
2022/01/06 06:32:39;;;;;;;11.07;1.70;;;0.20;99.90;;;;;;5088023;28;20079;-70
2022/01/06 06:35:05;;;;;;;13.07;2.30;;;0.20;99.90;;;;;;5078897;28;20056;-70
2022/01/06 06:37:31;;;;;;;7.95;2.33;;;0.20;99.90;;;;;;5078919;28;20048;-70
2022/01/06 06:39:57;;;;;;;8.20;2.20;;;0.30;99.90;;;;;;5077808;28;20056;-70
2022/01/06 06:42:28;;;;;;;10.45;2.47;;;0.30;99.90;;;;;;5078045;28;20049;-70
2022/01/06 06:44:54;;;;;;;10.75;2.17;;;0.30;99.90;;;;;;5077219;28;20044;-70
2022/01/06 06:47:20;;;;;;;8.95;2.15;;;0.30;99.90;;;;;;5077466;28;20067;-70
2022/01/06 06:49:46;;;;;;;10.50;2.80;;;0.30;99.90;;;;;;5084097;28;20059;-70
2022/01/06 06:52:12;;;;;;;10.77;2.35;;;0.30;99.90;;;;;;5097960;28;20051;-70
2022/01/06 06:54:38;;;;;;;12.27;2.17;;;0.40;99.90;;;;;;5091574;28;20032;-70
2022/01/06 06:57:04;;;;;;;10.73;2.25;;;0.40;99.90;;;;;;5087828;28;20041;-70
2022/01/06 06:59:29;;;;;;;10.82;2.03;;;0.40;99.90;;;;;;5078450;28;20087;-70
2022/01/06 07:01:56;;;;;;;9.82;1.80;;;0.40;99.90;;;;;;5082206;28;20079;-70
2022/01/06 07:04:21;;;;;;;13.02;2.50;;;0.50;99.90;;;;;;5078898;28;20443;-70
2022/01/06 07:06:47;;;;;;;9.57;2.13;;;0.40;99.90;;;;;;5091962;28;20470;-69
2022/01/06 07:09:13;;;;;;;8.75;2.25;;;0.90;99.90;;;;;;5095548;28;20049;-70
2022/01/06 07:11:39;;;;;;;7.88;2.10;;;0.30;99.90;;;;;;5090456;28;20044;-69
2022/01/06 07:14:04;;;;;;;15.43;3.75;;;0.30;99.90;;;;;;5079904;28;20496;-69
2022/01/06 07:16:30;;;;;;;8.07;2.13;;;0.30;99.90;;;;;;5078025;28;20128;-70
2022/01/06 07:18:56;;;;;;;7.22;1.77;;;0.20;99.90;;;;;;5081133;28;20123;-69
2022/01/06 07:21:22;;;;;;;12.88;2.58;;;0.20;99.90;;;;;;5082555;28;20070;-69
2022/01/06 07:23:48;;;;;;;8.23;2.00;;;0.20;99.90;;;;;;5078346;28;20053;-69
2022/01/06 07:26:13;;;;;;;8.38;1.88;;;0.10;99.90;;;;;;5076573;28;20530;-69
2022/01/06 07:28:39;;;;;;;11.02;1.80;;;0.10;99.90;;;;;;5078528;28;20052;-69
2022/01/06 07:31:05;;;;;;;8.35;2.10;;;0.10;99.90;;;;;;5077128;28;20041;-69
2022/01/06 07:33:31;;;;;;;10.00;2.35;;;0.10;99.90;;;;;;5104113;28;20044;-69
2022/01/06 07:35:57;;;;;;;7.55;1.90;;;0.10;99.90;;;;;;5080046;28;20048;-69
2022/01/06 07:38:23;;;;;;;13.88;2.58;;;0.10;99.90;;;;;;5080001;28;20041;-69
2022/01/06 07:40:49;;;;;;;8.60;2.40;;;0.50;99.90;;;;;;5081574;28;20560;-69
2022/01/06 07:43:15;;;;;;;9.38;2.28;;;0.10;99.90;;;;;;5094070;28;20059;-69
2022/01/06 07:45:40;;;;;;;6.03;1.60;;;0.10;99.90;;;;;;5083234;28;20070;-69
2022/01/06 07:48:16;;;;;;;10.15;2.35;;;0.10;99.90;;;;;;5080208;28;20094;-69
2022/01/06 07:50:43;;;;;;;11.60;3.65;;;0.10;99.90;;;;;;5095778;28;20051;-69
2022/01/06 07:53:09;;;;;;;9.07;1.65;;;0.00;99.90;;;;;;5081028;28;20059;-69
2022/01/06 07:55:35;;;;;;;10.52;2.22;;;0.00;99.90;;;;;;5081128;28;20075;-69
2022/01/06 07:58:02;;;;;;;10.43;2.53;;;0.00;99.90;;;;;;5079174;28;20091;-69
2022/01/06 08:00:27;;;;;;;8.65;1.90;;;0.10;99.90;;;;;;5083390;28;20044;-69
2022/01/06 08:02:53;;;;;;;11.25;2.13;;;0.10;99.90;;;;;;5080032;28;20126;-69
2022/01/06 08:05:22;;;;;;;19.40;4.10;;;0.20;99.90;;;;;;5078574;28;20048;-69
2022/01/06 08:07:48;;;;;;;10.52;2.55;;;0.30;99.90;;;;;;5084626;28;20051;-69
2022/01/06 08:10:14;;;;;;;12.63;2.20;;;0.30;99.90;;;;;;5080925;28;20450;-69
2022/01/06 08:12:40;;;;;;;12.10;2.47;;;0.30;99.90;;;;;;5080975;28;20051;-69
2022/01/06 08:15:07;;;;;;;13.45;2.80;;;0.40;99.90;;;;;;5084401;28;20053;-69
2022/01/06 08:17:33;;;;;;;12.98;2.17;;;0.40;99.90;;;;;;5093592;28;20052;-69
2022/01/06 08:19:59;;;;;;;9.15;2.63;;;0.40;99.90;;;;;;5098834;28;20040;-69
2022/01/06 08:22:25;;;;;;;13.07;2.75;;;0.50;99.90;;;;;;5089933;28;20056;-69
2022/01/06 08:24:53;;;;;;;12.65;2.20;;;0.40;99.90;;;;;;5085373;28;20102;-69
2022/01/06 08:27:19;;;;;;;12.00;2.05;;;0.40;99.90;;;;;;5089730;28;20044;-69
2022/01/06 08:29:45;;;;;;;11.45;2.42;;;0.40;99.90;;;;;;5092105;28;20133;-69
2022/01/06 08:32:11;;;;;;;6.65;2.42;;;0.40;99.90;;;;;;5096710;28;20039;-69
2022/01/06 08:34:36;;;;;;;9.38;2.13;;;0.40;99.90;;;;;;5088320;28;20467;-69
2022/01/06 08:37:02;;;;;;;11.23;2.15;;;0.30;99.90;;;;;;5084516;28;20079;-69
2022/01/06 08:39:28;;;;;;;10.35;2.10;;;0.30;99.90;;;;;;5081025;28;20047;-69
2022/01/06 08:41:54;;;;;;;8.30;2.00;;;0.30;99.90;;;;;;5100752;28;20075;-69
2022/01/06 08:44:22;;;;;;;11.48;2.17;;;0.40;99.90;;;;;;5094077;28;20049;-69
2022/01/06 08:46:48;;;;;;;15.95;4.07;;;0.40;99.90;;;;;;5079838;28;20574;-69
2022/01/06 08:49:15;;;;;;;12.57;2.33;;;0.40;99.90;;;;;;5086045;28;20048;-69
2022/01/06 08:51:42;;;;;;;8.65;2.05;;;0.40;99.90;;;;;;5079487;28;20036;-69
2022/01/06 08:54:08;;;;;;;7.57;1.95;;;0.40;99.90;;;;;;5097787;28;20090;-69
2022/01/06 08:56:35;;;;;;;10.60;3.42;;;0.80;99.90;;;;;;5096819;28;20048;-70
2022/01/06 08:59:00;;;;;;;16.00;2.72;;;0.50;99.90;;;;;;5100562;28;20419;-70
2022/01/06 09:01:27;;;;;;;11.60;2.25;;;0.50;99.90;;;;;;5086201;28;20052;-69
2022/01/06 09:03:53;;;;;;;9.57;2.15;;;0.60;99.90;;;;;;5078377;28;20048;-69
2022/01/06 09:06:20;;;;;;;7.72;2.45;;;0.60;99.90;;;;;;5083923;28;20047;-69
2022/01/06 09:08:46;;;;;;;8.57;2.20;;;0.70;99.90;;;;;;5099177;28;20041;-70
2022/01/06 09:11:12;;;;;;;11.98;2.50;;;0.70;99.90;;;;;;5089713;28;20838;-70
2022/01/06 09:13:38;;;;;;;10.55;2.30;;;0.70;99.90;;;;;;5098180;28;20055;-70
2022/01/06 09:16:08;;;;;;;13.18;2.33;;;0.80;99.90;;;;;;5099032;28;20446;-70
2022/01/06 09:18:34;;;;;;;11.70;3.13;;;0.80;99.90;;;;;;5096475;28;20052;-70
2022/01/06 09:21:00;;;;;;;8.75;2.47;;;0.80;99.90;;;;;;5079766;28;20112;-70
2022/01/06 09:23:26;;;;;;;7.85;2.20;;;0.90;99.90;;;;;;5081092;28;20080;-70
2022/01/06 09:25:52;;;;;;;15.80;2.67;;;0.90;99.90;;;;;;5084902;28;20119;-70
2022/01/06 09:28:17;;;;;;;12.82;2.80;;;0.90;99.90;;;;;;5094968;28;20033;-71
2022/01/06 09:30:43;;;;;;;12.70;4.15;;;1.00;99.90;;;;;;5096712;28;20040;-71
2022/01/06 09:33:09;;;;;;;9.05;2.20;;;1.00;99.90;;;;;;5114832;28;20050;-71
2022/01/06 09:35:34;;;;;;;13.00;2.90;;;1.10;99.90;;;;;;5090671;28;20044;-71
2022/01/06 09:38:00;;;;;;;12.10;3.17;;;1.10;99.90;;;;;;5079027;28;20062;-71
2022/01/06 09:40:26;;;;;;;8.80;2.53;;;1.20;99.90;;;;;;5079528;28;20403;-70
2022/01/06 09:42:55;;;;;;;13.85;4.18;;;1.20;99.90;;;;;;5096960;28;20059;-71
2022/01/06 09:45:25;;;;;;;15.73;4.25;;;1.30;99.90;;;;;;5090217;28;20037;-70
2022/01/06 09:47:51;;;;;;;8.75;2.50;;;1.30;99.90;;;;;;5077240;28;20052;-71
2022/01/06 09:50:17;;;;;;;10.35;2.22;;;1.40;99.90;;;;;;5078505;28;20094;-71
2022/01/06 09:52:42;;;;;;;15.57;3.35;;;1.50;99.90;;;;;;5075884;28;20056;-70
2022/01/06 09:55:09;;;;;;;13.13;2.60;;;1.60;99.90;;;;;;5096328;28;20094;-71
2022/01/06 09:57:35;;;;;;;17.52;3.70;;;1.70;99.90;;;;;;5081010;28;20094;-71
2022/01/06 10:00:04;;;;;;;11.18;3.35;;;1.90;99.90;;;;;;5077930;28;20037;-70
2022/01/06 10:02:37;;;;;;;9.55;2.65;;;1.90;99.90;;;;;;5085739;28;20128;-70
2022/01/06 10:05:04;;;;;;;18.42;2.85;;;1.90;99.90;;;;;;5090377;28;20055;-71
2022/01/06 10:07:40;;;;;;;12.02;2.90;;;2.10;99.90;;;;;;5093509;28;20123;-71
2022/01/06 10:10:12;;;;;;;11.32;2.83;;;2.20;99.90;;;;;;5083273;28;20144;-71
2022/01/06 10:12:40;;;;;;;15.98;2.80;;;2.30;99.90;;;;;;5083423;28;20043;-71
2022/01/06 10:15:20;;;;;;;11.13;4.30;;;2.40;99.90;;;;;;5086277;28;20048;-71
2022/01/06 10:17:46;;;;;;;13.23;2.45;;;2.70;99.90;;;;;;5076267;28;20049;-71
2022/01/06 10:20:21;;;;;;;8.45;1.80;;;2.90;99.90;;;;;;5080951;28;20051;-70
2022/01/06 10:22:52;;;;;;;13.40;2.60;;;3.10;99.90;;;;;;5096967;28;20040;-71
2022/01/06 10:25:20;;;;;;;12.10;2.90;;;3.50;99.90;;;;;;5090905;28;20051;-71
2022/01/06 10:27:46;;;;;;;7.63;2.72;;;3.70;99.90;;;;;;5090776;28;20036;-70
2022/01/06 10:30:13;;;;;;;6.63;2.25;;;3.90;99.90;;;;;;5077810;28;20044;-70
2022/01/06 10:32:40;;;;;;;14.50;3.05;;;4.20;99.90;;;;;;5090368;28;20044;-70
2022/01/06 10:35:08;;;;;;;14.93;3.28;;;4.10;99.90;;;;;;5075815;28;20079;-71
2022/01/06 10:37:42;;;;;;;8.73;2.95;;;4.50;99.90;;;;;;5083988;28;20044;-70
2022/01/06 10:40:27;;;;;;;10.35;2.70;;;4.80;99.90;;;;;;5084834;28;20039;-71
2022/01/06 10:42:57;;;;;;;12.70;2.60;;;5.20;99.90;;;;;;5051328;28;20048;-71
2022/01/06 10:45:26;;;;;;;13.82;3.00;;;5.40;99.90;;;;;;5098158;28;20534;-71
2022/01/06 10:47:57;;;;;;;11.30;2.55;;;5.70;99.90;;;;;;5095856;28;20055;-71
2022/01/06 10:50:28;;;;;;;7.97;3.28;;;5.80;99.90;;;;;;5095184;28;20048;-71
2022/01/06 10:52:58;;;;;;;10.55;2.63;;;6.00;99.90;;;;;;5097851;28;20040;-71
2022/01/06 10:55:28;;;;;;;12.82;2.85;;;6.00;99.90;;;;;;5088727;28;20051;-71
2022/01/06 10:58:04;;;;;;;10.40;3.20;;;6.00;99.90;;;;;;5087343;28;20043;-71
2022/01/06 11:00:48;;;;;;;9.75;2.80;;;6.10;99.90;;;;;;5097589;28;20044;-69
2022/01/06 11:03:22;;;;;;;11.88;2.95;;;6.20;99.90;;;;;;5091633;28;20039;-69
2022/01/06 11:05:58;;;;;;;11.88;3.33;;;6.30;99.90;;;;;;5076020;28;20049;-69
2022/01/06 11:08:27;;;;;;;10.18;2.95;;;6.40;99.90;;;;;;5092559;28;20728;-69
2022/01/06 11:11:13;;;;;;;11.25;3.28;;;6.50;99.90;;;;;;5102509;28;20056;-69
2022/01/06 11:13:41;;;;;;;8.00;2.25;;;6.50;99.90;;;;;;5091265;28;20044;-70
2022/01/06 11:16:08;;;;;;;14.32;3.08;;;6.40;99.90;;;;;;5089791;28;20045;-70
2022/01/06 11:18:42;;;;;;;14.05;3.25;;;6.30;99.90;;;;;;5087145;28;20085;-70
2022/01/06 11:21:12;;;;;;;14.10;2.85;;;5.90;99.90;;;;;;5084496;28;20033;-70
2022/01/06 11:23:37;;;;;;;14.68;3.17;;;5.60;99.90;;;;;;5098637;28;20042;-69
2022/01/06 11:26:06;;;;;;;13.35;3.20;;;5.40;99.90;;;;;;5084183;28;20060;-69
2022/01/06 11:28:33;;;;;;;10.13;2.63;;;5.30;99.90;;;;;;5096835;28;20039;-70
2022/01/06 11:31:12;;;;;;;10.35;2.92;;;5.20;99.90;;;;;;5099146;28;20040;-69
2022/01/06 11:33:42;;;;;;;11.55;2.60;;;5.10;99.90;;;;;;5090986;28;20044;-69
2022/01/06 11:36:25;;;;;;;10.52;2.80;;;5.10;99.90;;;;;;5098376;28;20044;-69
2022/01/06 11:38:52;;;;;;;9.70;2.95;;;5.10;99.90;;;;;;5079322;28;20059;-70
2022/01/06 11:41:18;;;;;;;10.63;3.08;;;5.10;99.90;;;;;;5081841;28;20049;-69
2022/01/06 11:43:46;;;;;;;10.45;2.53;;;5.10;99.90;;;;;;5078721;28;20135;-70
2022/01/06 11:46:13;;;;;;;10.02;2.75;;;5.10;99.90;;;;;;5079367;28;20040;-70
2022/01/06 11:48:58;;;;;;;11.27;3.45;;;5.10;99.90;;;;;;5088923;28;20127;-70
2022/01/06 11:51:31;;;;;;;8.93;3.00;;;5.10;99.90;;;;;;5087612;28;20040;-70
2022/01/06 11:53:58;;;;;;;15.15;2.90;;;5.20;99.90;;;;;;5080849;28;20075;-70
2022/01/06 11:56:26;;;;;;;12.27;2.88;;;5.20;99.90;;;;;;5090603;28;20036;-70
2022/01/06 11:58:59;;;;;;;10.40;2.75;;;5.40;99.90;;;;;;5085819;28;20052;-69
2022/01/06 12:01:25;;;;;;;12.30;3.55;;;5.40;99.90;;;;;;5081351;28;20144;-70
2022/01/06 12:03:51;;;;;;;11.38;3.15;;;5.30;99.90;;;;;;5083187;28;20071;-69
2022/01/06 12:06:31;;;;;;;14.35;3.00;;;5.60;99.90;;;;;;5089046;28;20087;-70
2022/01/06 12:08:59;;;;;;;14.82;5.28;;;5.30;99.90;;;;;;5095184;28;20071;-70
2022/01/06 12:11:33;;;;;;;11.95;3.25;;;5.30;99.90;;;;;;5087404;28;20045;-69
2022/01/06 12:14:00;;;;;;;16.10;4.75;;;5.30;99.90;;;;;;5079124;28;20055;-70
2022/01/06 12:16:32;;;;;;;11.82;2.33;;;5.30;99.90;;;;;;5079076;28;20049;-69
2022/01/06 12:18:59;;;;;;;11.38;2.55;;;5.30;99.90;;;;;;5083086;28;20052;-69
2022/01/06 12:21:26;;;;;;;10.85;2.50;;;5.60;99.90;;;;;;5085166;28;20048;-69
2022/01/06 12:24:06;;;;;;;12.85;3.33;;;5.40;99.90;;;;;;5086589;28;20051;-69
2022/01/06 12:26:33;;;;;;;11.45;2.70;;;5.40;99.90;;;;;;5084777;28;20046;-70
2022/01/06 12:28:59;;;;;;;14.35;2.53;;;5.50;99.90;;;;;;5088840;28;20053;-70
2022/01/06 12:31:28;;;;;;;10.40;3.17;;;5.60;99.90;;;;;;5069146;28;20049;-70
2022/01/06 12:33:59;;;;;;;10.30;2.67;;;5.60;99.90;;;;;;5087275;28;20947;-70
2022/01/06 12:36:27;;;;;;;12.38;2.88;;;5.70;99.90;;;;;;5086080;28;20048;-69
2022/01/06 12:38:52;;;;;;;12.15;2.50;;;5.70;99.90;;;;;;5084106;28;20041;-70
2022/01/06 12:41:30;;;;;;;12.93;3.72;;;5.70;99.90;;;;;;5086448;28;20132;-70
2022/01/06 12:43:57;;;;;;;13.40;3.38;;;5.70;99.90;;;;;;5088070;28;20055;-69
2022/01/06 12:46:45;;;;;;;7.38;2.55;;;5.70;99.90;;;;;;5085399;28;20157;-70
2022/01/06 12:49:12;;;;;;;16.42;3.17;;;5.70;99.90;;;;;;5090902;28;20067;-70
2022/01/06 12:51:46;;;;;;;9.73;3.28;;;5.80;99.90;;;;;;5076406;28;20127;-70
2022/01/06 12:54:18;;;;;;;10.95;2.67;;;6.00;99.90;;;;;;5081738;28;20052;-69
2022/01/06 12:56:49;;;;;;;8.45;2.40;;;6.30;99.90;;;;;;5106164;28;20051;-70
2022/01/06 12:59:34;;;;;;;8.20;2.40;;;6.30;99.90;;;;;;5085329;28;20119;-69
2022/01/06 13:02:02;;;;;;;15.23;2.70;;;6.20;99.90;;;;;;5093952;28;20052;-69